createdAt,value
2018-04-26T00:01:44.353Z,1.33
2018-04-26T00:04:10.653Z,1.30
2018-04-26T00:06:37.655Z,1.10
2018-04-26T00:09:03.972Z,1.10
2018-04-26T00:11:30.288Z,1.20
2018-04-26T00:13:56.631Z,1.20
2018-04-26T00:16:22.976Z,1.23
2018-04-26T00:18:49.279Z,1.30
2018-04-26T00:21:15.579Z,1.30
2018-04-26T00:23:42.622Z,1.30
2018-04-26T00:26:08.951Z,1.50
2018-04-26T00:28:35.255Z,1.27
2018-04-26T00:31:01.653Z,1.20
2018-04-26T00:33:27.918Z,1.40
2018-04-26T00:35:54.200Z,1.30
2018-04-26T00:38:21.247Z,1.30
2018-04-26T00:40:48.304Z,1.20
2018-04-26T00:43:14.593Z,1.50
2018-04-26T00:45:40.900Z,1.20
2018-04-26T00:48:08.167Z,1.40
2018-04-26T00:50:34.457Z,1.20
2018-04-26T00:53:00.742Z,1.23
2018-04-26T00:55:27.022Z,1.60
2018-04-26T00:57:53.340Z,1.10
2018-04-26T01:00:19.665Z,1.70
2018-04-26T01:02:45.980Z,1.20
2018-04-26T01:05:13.015Z,1.40
2018-04-26T01:07:39.299Z,1.20
2018-04-26T01:10:05.624Z,1.23
2018-04-26T01:12:31.918Z,1.40
2018-04-26T01:14:58.983Z,1.27
2018-04-26T01:17:25.291Z,1.40
2018-04-26T01:19:52.328Z,1.33
2018-04-26T01:22:18.600Z,1.10
2018-04-26T01:24:44.953Z,1.10
2018-04-26T01:27:11.260Z,1.33
2018-04-26T01:29:37.566Z,1.00
2018-04-26T01:32:04.606Z,1.30
2018-04-26T01:34:30.899Z,1.20
2018-04-26T01:37:09.327Z,1.30
2018-04-26T01:39:35.626Z,1.20
2018-04-26T01:42:01.947Z,1.70
2018-04-26T01:44:28.308Z,1.57
2018-04-26T01:46:54.610Z,1.10
2018-04-26T01:49:20.887Z,1.47
2018-04-26T01:51:47.173Z,1.10
2018-04-26T01:54:13.501Z,1.10
2018-04-26T01:56:39.859Z,1.13
2018-04-26T01:59:06.143Z,1.30
2018-04-26T02:01:33.184Z,1.13
2018-04-26T02:04:00.231Z,1.20
2018-04-26T02:06:27.284Z,1.30
2018-04-26T02:08:54.308Z,1.30
2018-04-26T02:11:20.596Z,1.20
2018-04-26T02:13:46.886Z,1.43
2018-04-26T02:16:13.944Z,1.10
2018-04-26T02:18:40.965Z,1.30
2018-04-26T02:21:07.294Z,1.20
2018-04-26T02:23:33.591Z,1.27
2018-04-26T02:25:59.881Z,1.53
2018-04-26T02:28:26.924Z,1.17
2018-04-26T02:30:53.970Z,1.07
2018-04-26T02:33:21.025Z,1.20
2018-04-26T02:35:48.046Z,1.33
2018-04-26T02:38:14.372Z,1.50
2018-04-26T02:40:40.703Z,1.30
2018-04-26T02:43:07.092Z,1.40
2018-04-26T02:45:33.491Z,1.50
2018-04-26T02:48:00.621Z,1.70
2018-04-26T02:50:26.899Z,1.30
2018-04-26T02:52:53.176Z,1.40
2018-04-26T02:55:19.476Z,1.30
2018-04-26T02:57:45.780Z,1.57
2018-04-26T03:00:12.074Z,1.40
2018-04-26T03:02:38.377Z,1.43
2018-04-26T03:05:04.676Z,1.50
2018-04-26T03:07:30.988Z,1.57
2018-04-26T03:09:58.022Z,1.60
2018-04-26T03:12:24.344Z,2.00
2018-04-26T03:14:50.653Z,1.77
2018-04-26T03:17:16.980Z,1.80
2018-04-26T03:19:43.272Z,1.70
2018-04-26T03:22:09.589Z,1.57
2018-04-26T03:24:36.602Z,1.53
2018-04-26T03:27:02.913Z,1.80
2018-04-26T03:29:29.218Z,2.00
2018-04-26T03:31:56.294Z,1.83
2018-04-26T03:34:22.624Z,1.67
2018-04-26T03:36:48.933Z,1.83
2018-04-26T03:39:15.255Z,2.30
2018-04-26T03:41:41.556Z,1.47
2018-04-26T03:44:07.887Z,1.70
2018-04-26T03:46:34.203Z,1.60
2018-04-26T03:49:00.598Z,1.60
2018-04-26T03:51:26.896Z,1.97
2018-04-26T03:53:53.938Z,1.90
2018-04-26T03:56:20.968Z,1.90
2018-04-26T03:58:47.248Z,2.00
2018-04-26T04:01:25.663Z,1.57
2018-04-26T04:04:04.079Z,1.77
2018-04-26T04:06:30.408Z,1.87
2018-04-26T04:08:56.687Z,1.80
2018-04-26T04:11:22.969Z,1.90
2018-04-26T04:13:49.341Z,1.90
2018-04-26T04:16:16.356Z,1.87
2018-04-26T04:18:42.651Z,1.90
2018-04-26T04:21:09.689Z,1.93
2018-04-26T04:23:35.989Z,2.03
2018-04-26T04:26:02.286Z,1.77
2018-04-26T04:28:28.571Z,2.00
2018-04-26T04:30:55.758Z,2.00
2018-04-26T04:33:22.901Z,1.93
2018-04-26T04:35:49.955Z,1.93
2018-04-26T04:38:16.266Z,2.17
2018-04-26T04:40:43.291Z,1.90
2018-04-26T04:43:09.576Z,1.37
2018-04-26T04:45:35.957Z,1.63
2018-04-26T04:48:02.285Z,1.67
2018-04-26T04:50:28.572Z,2.07
2018-04-26T04:52:54.995Z,1.90
2018-04-26T04:55:21.306Z,1.43
2018-04-26T04:57:48.386Z,1.07
2018-04-26T05:00:14.687Z,1.90
2018-04-26T05:02:41.739Z,1.97
2018-04-26T05:05:08.808Z,1.50
2018-04-26T05:07:35.098Z,2.00
2018-04-26T05:10:01.381Z,1.77
2018-04-26T05:12:27.714Z,1.77
2018-04-26T05:14:54.047Z,2.77
2018-04-26T05:17:20.332Z,1.73
2018-04-26T05:19:47.553Z,1.57
2018-04-26T05:22:14.744Z,1.80
2018-04-26T05:24:41.775Z,2.03
2018-04-26T05:27:08.095Z,2.10
2018-04-26T05:29:34.367Z,1.80
2018-04-26T05:32:00.643Z,1.77
2018-04-26T05:34:26.948Z,3.53
2018-04-26T05:36:53.298Z,5.00
2018-04-26T05:39:19.584Z,4.53
2018-04-26T05:41:46.556Z,4.30
2018-04-26T05:44:12.893Z,3.90
2018-04-26T05:46:39.198Z,3.50
2018-04-26T05:49:05.489Z,3.30
2018-04-26T05:51:31.772Z,2.80
2018-04-26T05:53:58.065Z,2.53
2018-04-26T05:56:25.127Z,1.97
2018-04-26T05:58:51.456Z,1.93
2018-04-26T06:01:17.782Z,1.83
2018-04-26T06:03:44.861Z,1.67
2018-04-26T06:06:11.148Z,1.37
2018-04-26T06:08:38.206Z,1.52
2018-04-26T06:11:05.233Z,1.70
2018-04-26T06:13:31.599Z,1.50
2018-04-26T06:15:58.748Z,2.47
2018-04-26T06:18:25.111Z,1.90
2018-04-26T06:20:51.423Z,1.93
2018-04-26T06:23:17.732Z,1.97
2018-04-26T06:25:44.806Z,1.80
2018-04-26T06:28:11.105Z,1.67
2018-04-26T06:30:38.165Z,1.10
2018-04-26T06:33:04.499Z,1.45
2018-04-26T06:35:30.807Z,1.10
2018-04-26T06:37:57.181Z,1.60
2018-04-26T06:40:23.665Z,1.23
2018-04-26T06:42:50.008Z,1.40
2018-04-26T06:45:17.060Z,1.50
2018-04-26T06:47:44.166Z,1.03
2018-04-26T06:50:10.476Z,0.90
2018-04-26T06:52:36.771Z,1.03
2018-04-26T06:55:03.869Z,1.10
2018-04-26T06:57:30.176Z,1.03
2018-04-26T06:59:56.576Z,1.40
2018-04-26T07:02:23.722Z,1.20
2018-04-26T07:04:50.074Z,1.13
2018-04-26T07:07:17.136Z,1.07
2018-04-26T07:09:43.452Z,1.33
2018-04-26T07:12:10.560Z,0.97
2018-04-26T07:14:37.554Z,0.90
2018-04-26T07:17:04.612Z,0.83
2018-04-26T07:19:30.894Z,1.07
2018-04-26T07:21:57.197Z,1.00
2018-04-26T07:24:23.493Z,1.30
2018-04-26T07:26:49.784Z,0.90
2018-04-26T07:29:16.161Z,0.83
2018-04-26T07:31:42.443Z,0.93
2018-04-26T07:34:08.768Z,1.00
2018-04-26T07:36:35.044Z,1.00
2018-04-26T07:39:02.163Z,0.87
2018-04-26T07:41:28.454Z,0.80
2018-04-26T07:43:54.751Z,0.93
2018-04-26T07:46:21.825Z,1.10
2018-04-26T07:48:48.123Z,1.10
2018-04-26T07:51:15.172Z,1.10
2018-04-26T07:53:42.223Z,0.90
2018-04-26T07:56:09.322Z,0.97
2018-04-26T07:58:35.605Z,0.80
2018-04-26T08:01:02.692Z,0.90
2018-04-26T08:03:28.967Z,1.13
2018-04-26T08:05:55.252Z,0.90
2018-04-26T08:08:21.571Z,1.47
2018-04-26T08:10:47.916Z,1.53
2018-04-26T08:13:14.242Z,2.00
2018-04-26T08:15:40.564Z,1.40
2018-04-26T08:18:06.899Z,1.60
2018-04-26T08:20:33.203Z,0.90
2018-04-26T08:23:00.248Z,0.93
2018-04-26T08:25:27.298Z,0.90
2018-04-26T08:27:53.580Z,0.70
2018-04-26T08:30:19.887Z,1.00
2018-04-26T08:32:46.175Z,0.87
2018-04-26T08:35:13.212Z,0.80
2018-04-26T08:37:39.519Z,0.90
2018-04-26T08:40:05.807Z,0.80
2018-04-26T08:42:32.168Z,0.93
2018-04-26T08:44:58.453Z,1.00
2018-04-26T08:47:25.539Z,0.97
2018-04-26T08:49:51.816Z,1.00
2018-04-26T08:52:18.184Z,0.97
2018-04-26T08:54:44.533Z,1.17
2018-04-26T08:57:10.822Z,1.20
2018-04-26T08:59:37.148Z,0.97
2018-04-26T09:02:04.215Z,1.03
2018-04-26T09:04:30.535Z,1.30
2018-04-26T09:06:57.582Z,0.90
2018-04-26T09:09:23.892Z,1.00
2018-04-26T09:11:50.216Z,1.27
2018-04-26T09:14:16.510Z,1.27
2018-04-26T09:16:42.790Z,0.87
2018-04-26T09:19:09.099Z,0.87
2018-04-26T09:21:35.397Z,1.10
2018-04-26T09:24:01.700Z,1.00
2018-04-26T09:26:28.779Z,1.00
2018-04-26T09:28:55.067Z,1.23
2018-04-26T09:31:22.102Z,0.73
2018-04-26T09:33:48.404Z,0.80
2018-04-26T09:36:14.710Z,0.90
2018-04-26T09:38:41.078Z,0.83
2018-04-26T09:41:08.052Z,0.90
2018-04-26T09:43:34.392Z,0.83
2018-04-26T09:46:01.419Z,1.37
2018-04-26T09:48:27.723Z,0.80
2018-04-26T09:50:54.016Z,0.77
2018-04-26T09:53:20.317Z,0.70
2018-04-26T09:55:47.383Z,0.80
2018-04-26T09:58:14.439Z,0.90
2018-04-26T10:00:41.488Z,0.90
2018-04-26T10:03:08.599Z,0.70
2018-04-26T10:05:40.839Z,0.60
2018-04-26T10:08:07.215Z,0.60
2018-04-26T10:10:33.596Z,0.80
2018-04-26T10:12:59.916Z,0.83
2018-04-26T10:15:26.233Z,0.70
2018-04-26T10:17:52.545Z,0.77
2018-04-26T10:20:19.596Z,0.83
2018-04-26T10:22:46.635Z,0.90
2018-04-26T10:25:12.928Z,0.70
2018-04-26T10:27:39.229Z,0.93
2018-04-26T10:30:05.567Z,1.00
2018-04-26T10:32:32.556Z,1.03
2018-04-26T10:34:58.858Z,0.73
2018-04-26T10:37:25.166Z,1.23
2018-04-26T10:39:51.541Z,0.87
2018-04-26T10:42:17.856Z,0.57
2018-04-26T10:44:44.157Z,0.70
2018-04-26T10:47:10.448Z,0.80
2018-04-26T10:49:36.731Z,0.90
2018-04-26T10:52:03.072Z,0.80
2018-04-26T10:54:29.368Z,0.63
2018-04-26T10:56:56.423Z,0.93
2018-04-26T10:59:22.736Z,1.00
2018-04-26T11:01:49.758Z,0.60
2018-04-26T11:04:16.059Z,0.70
2018-04-26T11:06:42.372Z,0.70
2018-04-26T11:09:08.685Z,0.80
2018-04-26T11:11:35.715Z,0.80
2018-04-26T11:14:02.767Z,0.60
2018-04-26T11:16:29.807Z,0.90
2018-04-26T11:18:56.916Z,0.70
2018-04-26T11:21:23.238Z,0.80
2018-04-26T11:23:49.536Z,0.77
2018-04-26T11:26:16.563Z,0.87
2018-04-26T11:28:42.855Z,1.03
2018-04-26T11:31:09.207Z,0.83
2018-04-26T11:33:35.436Z,0.70
2018-04-26T11:36:01.743Z,0.63
2018-04-26T11:38:28.077Z,0.80
2018-04-26T11:40:54.344Z,0.50
2018-04-26T11:43:20.640Z,0.50
2018-04-26T11:45:46.927Z,0.93
2018-04-26T11:48:14.004Z,0.80
2018-04-26T11:50:40.304Z,0.80
2018-04-26T11:53:07.364Z,0.73
2018-04-26T11:55:33.688Z,0.80
2018-04-26T11:58:00.726Z,0.60
2018-04-26T12:00:28.762Z,0.70
2018-04-26T12:02:55.068Z,0.80
2018-04-26T12:05:21.376Z,0.70
2018-04-26T12:07:47.787Z,0.70
2018-04-26T12:10:14.038Z,0.80
2018-04-26T12:12:41.121Z,0.60
2018-04-26T12:15:07.462Z,0.80
2018-04-26T12:17:33.872Z,0.60
2018-04-26T12:20:00.212Z,0.50
2018-04-26T12:22:26.899Z,0.60
2018-04-26T12:24:54.061Z,0.67
2018-04-26T12:27:21.132Z,0.53
2018-04-26T12:29:47.488Z,0.40
2018-04-26T12:32:13.766Z,0.50
2018-04-26T12:34:40.828Z,0.70
2018-04-26T12:37:08.339Z,0.70
2018-04-26T12:39:34.732Z,0.47
2018-04-26T12:42:01.194Z,0.50
2018-04-26T12:44:27.510Z,0.70
2018-04-26T12:46:53.838Z,0.90
2018-04-26T12:49:20.135Z,0.73
2018-04-26T12:51:47.159Z,0.53
2018-04-26T12:54:13.573Z,0.70
2018-04-26T12:56:39.984Z,0.53
2018-04-26T12:59:06.278Z,0.60
2018-04-26T13:01:33.296Z,0.60
2018-04-26T13:03:59.743Z,0.70
2018-04-26T13:06:26.836Z,0.60
2018-04-26T13:08:53.171Z,0.70
2018-04-26T13:11:19.492Z,0.80
2018-04-26T13:13:45.807Z,0.60
2018-04-26T13:16:12.882Z,0.50
2018-04-26T13:18:39.170Z,0.60
2018-04-26T13:21:06.313Z,0.60
2018-04-26T13:23:33.283Z,0.57
2018-04-26T13:26:00.329Z,0.80
2018-04-26T13:28:27.351Z,0.70
2018-04-26T13:30:53.788Z,0.50
2018-04-26T13:33:20.193Z,0.73
2018-04-26T13:35:46.492Z,1.20
2018-04-26T13:38:12.852Z,1.10
2018-04-26T13:40:39.148Z,0.70
2018-04-26T13:43:05.465Z,0.60
2018-04-26T13:45:32.621Z,0.67
2018-04-26T13:47:58.951Z,0.80
2018-04-26T13:50:25.319Z,0.87
2018-04-26T13:52:51.623Z,0.70
2018-04-26T13:55:17.955Z,0.60
2018-04-26T13:57:44.272Z,0.80
2018-04-26T14:00:11.528Z,0.90
2018-04-26T14:02:38.630Z,0.90
2018-04-26T14:05:04.982Z,0.60
2018-04-26T14:07:31.953Z,0.83
2018-04-26T14:09:58.996Z,0.70
2018-04-26T14:12:26.070Z,0.60
2018-04-26T14:14:52.521Z,0.70
2018-04-26T14:17:18.805Z,0.80
2018-04-26T14:19:45.890Z,0.60
2018-04-26T14:22:12.352Z,0.50
2018-04-26T14:24:38.731Z,0.40
2018-04-26T14:27:05.060Z,0.80
2018-04-26T14:29:32.207Z,0.70
2018-04-26T14:31:58.483Z,0.70
2018-04-26T14:34:25.264Z,0.67
2018-04-26T14:36:52.575Z,0.70
2018-04-26T14:39:18.899Z,0.60
2018-04-26T14:41:45.189Z,0.60
2018-04-26T14:44:11.575Z,0.50
2018-04-26T14:46:37.908Z,0.60
2018-04-26T14:49:04.268Z,0.43
2018-04-26T14:51:30.896Z,0.63
2018-04-26T14:53:57.284Z,0.40
2018-04-26T14:56:23.624Z,0.60
2018-04-26T14:58:49.918Z,0.70
2018-04-26T15:01:16.937Z,0.67
2018-04-26T15:03:43.412Z,0.70
2018-04-26T15:06:09.723Z,0.70
2018-04-26T15:08:36.779Z,0.80
2018-04-26T15:11:04.829Z,0.63
2018-04-26T15:13:31.143Z,0.60
2018-04-26T15:15:58.255Z,0.60
2018-04-26T15:18:24.968Z,0.70
2018-04-26T15:20:52.114Z,0.60
2018-04-26T15:23:20.048Z,0.90
2018-04-26T15:25:46.344Z,0.50
2018-04-26T15:28:12.914Z,0.70
2018-04-26T15:30:39.239Z,0.60
2018-04-26T15:33:05.683Z,0.60
2018-04-26T15:35:32.017Z,0.83
2018-04-26T15:37:58.313Z,1.03
2018-04-26T15:40:24.595Z,1.13
2018-04-26T15:42:50.879Z,0.90
2018-04-26T15:45:17.193Z,0.80
2018-04-26T15:47:43.538Z,0.83
2018-04-26T15:50:09.853Z,0.70
2018-04-26T15:52:54.455Z,0.93
2018-04-26T15:55:32.872Z,0.70
2018-04-26T15:58:20.058Z,0.73
2018-04-26T16:01:04.594Z,0.57
2018-04-26T16:03:43.124Z,0.60
2018-04-26T16:06:31.186Z,0.50
2018-04-26T16:09:09.514Z,0.80
2018-04-26T16:11:48.504Z,0.57
2018-04-26T16:14:33.002Z,0.70
2018-04-26T16:17:31.221Z,0.70
2018-04-26T16:20:16.543Z,0.47
2018-04-26T16:23:01.098Z,0.47
2018-04-26T16:25:51.342Z,0.60
2018-04-26T16:28:36.627Z,0.50
2018-04-26T16:31:21.970Z,0.47
2018-04-26T16:34:05.408Z,0.70
2018-04-26T16:36:43.750Z,0.57
2018-04-26T16:39:17.483Z,0.60
2018-04-26T16:41:43.797Z,0.60
2018-04-26T16:44:10.104Z,0.60
2018-04-26T16:46:37.212Z,0.60
2018-04-26T16:49:04.246Z,0.60
2018-04-26T16:51:31.503Z,0.50
2018-04-26T16:53:57.818Z,0.83
2018-04-26T16:56:24.136Z,0.50
2018-04-26T16:58:50.504Z,0.60
2018-04-26T17:01:16.813Z,0.70
2018-04-26T17:03:43.124Z,0.70
2018-04-26T17:06:11.810Z,0.53
2018-04-26T17:08:38.864Z,0.67
2018-04-26T17:11:05.487Z,0.43
2018-04-26T17:13:32.554Z,0.70
2018-04-26T17:15:58.887Z,0.50
2018-04-26T17:18:25.183Z,0.53
2018-04-26T17:20:52.365Z,0.77
2018-04-26T17:23:19.381Z,0.60
2018-04-26T17:25:45.692Z,0.57
2018-04-26T17:28:12.625Z,0.50
2018-04-26T17:30:38.890Z,0.70
2018-04-26T17:33:06.126Z,0.70
2018-04-26T17:35:32.464Z,0.90
2018-04-26T17:37:58.756Z,0.80
2018-04-26T17:40:25.056Z,0.80
2018-04-26T17:42:53.276Z,0.80
2018-04-26T17:45:19.584Z,0.50
2018-04-26T17:47:45.889Z,0.67
2018-04-26T17:50:12.928Z,0.80
2018-04-26T17:52:40.871Z,0.70
2018-04-26T17:55:07.184Z,0.60
2018-04-26T17:57:33.502Z,0.60
2018-04-26T17:59:59.796Z,1.03
2018-04-26T18:02:26.836Z,0.50
2018-04-26T18:04:53.882Z,0.50
2018-04-26T18:07:20.931Z,0.40
2018-04-26T18:09:47.977Z,0.70
2018-04-26T18:12:15.031Z,0.70
2018-04-26T18:14:42.057Z,0.50
2018-04-26T18:17:08.344Z,0.40
2018-04-26T18:19:34.678Z,0.60
2018-04-26T18:22:00.980Z,0.73
2018-04-26T18:24:28.007Z,0.50
2018-04-26T18:26:54.303Z,0.70
2018-04-26T18:29:20.580Z,0.53
2018-04-26T18:31:47.591Z,0.50
2018-04-26T18:34:16.962Z,0.63
2018-04-26T18:36:40.168Z,0.60
2018-04-26T18:39:06.446Z,0.67
2018-04-26T18:41:32.749Z,1.00
2018-04-26T18:43:59.862Z,0.57
2018-04-26T18:46:26.168Z,0.50
2018-04-26T18:48:52.470Z,0.57
2018-04-26T18:51:18.859Z,0.50
2018-04-26T18:53:45.111Z,0.60
2018-04-26T18:56:12.188Z,0.70
2018-04-26T18:58:38.517Z,0.57
2018-04-26T19:01:04.833Z,0.70
2018-04-26T19:03:31.851Z,0.50
2018-04-26T19:05:58.139Z,0.83
2018-04-26T19:08:24.455Z,0.80
2018-04-26T19:10:50.775Z,0.80
2018-04-26T19:13:17.813Z,0.70
2018-04-26T19:15:44.942Z,0.70
2018-04-26T19:18:11.242Z,0.73
2018-04-26T19:20:37.559Z,0.83
2018-04-26T19:23:03.869Z,0.60
2018-04-26T19:25:30.928Z,0.67
2018-04-26T19:27:57.376Z,0.70
2018-04-26T19:30:23.738Z,0.90
2018-04-26T19:32:50.339Z,1.57
2018-04-26T19:35:16.643Z,1.30
2018-04-26T19:37:42.984Z,1.00
2018-04-26T19:40:09.291Z,0.80
2018-04-26T19:42:35.916Z,0.83
2018-04-26T19:45:02.253Z,1.07
2018-04-26T19:47:28.655Z,1.00
2018-04-26T19:49:55.040Z,1.00
2018-04-26T19:52:22.127Z,0.67
2018-04-26T19:54:48.436Z,0.33
2018-04-26T19:57:14.732Z,0.53
2018-04-26T19:59:41.049Z,0.67
2018-04-26T20:02:07.376Z,0.57
2018-04-26T20:04:33.687Z,0.57
2018-04-26T20:06:59.996Z,0.53
2018-04-26T20:09:26.273Z,0.80
2018-04-26T20:11:52.583Z,0.70
2018-04-26T20:14:18.896Z,0.85
2018-04-26T20:16:45.944Z,0.73
2018-04-26T20:19:12.274Z,0.73
2018-04-26T20:21:39.592Z,0.60
2018-04-26T20:24:06.716Z,0.80
2018-04-26T20:26:33.061Z,0.60
2018-04-26T20:29:00.146Z,0.70
2018-04-26T20:31:26.520Z,0.77
2018-04-26T20:33:52.834Z,1.13
2018-04-26T20:36:19.160Z,0.50
2018-04-26T20:38:45.468Z,0.60
2018-04-26T20:41:11.823Z,0.73
2018-04-26T20:43:38.113Z,0.60
2018-04-26T20:46:05.156Z,0.50
2018-04-26T20:48:40.184Z,0.57
2018-04-26T20:51:07.251Z,0.60
2018-04-26T20:53:34.292Z,0.73
2018-04-26T20:56:01.372Z,0.77
2018-04-26T20:58:27.660Z,0.40
2018-04-26T21:00:54.883Z,0.53
2018-04-26T21:03:21.184Z,0.50
2018-04-26T21:05:47.523Z,0.97
2018-04-26T21:08:14.029Z,0.93
2018-04-26T21:10:41.047Z,1.47
2018-04-26T21:13:07.348Z,1.23
2018-04-26T21:15:33.696Z,0.80
2018-04-26T21:18:00.091Z,0.60
2018-04-26T21:20:26.466Z,0.70
2018-04-26T21:22:53.409Z,0.80
2018-04-26T21:25:19.742Z,0.70
2018-04-26T21:27:46.079Z,0.70
2018-04-26T21:30:12.404Z,0.60
2018-04-26T21:32:38.815Z,0.93
2018-04-26T21:35:05.104Z,0.63
2018-04-26T21:37:31.531Z,0.50
2018-04-26T21:39:58.688Z,0.60
2018-04-26T21:42:25.791Z,0.70
2018-04-26T21:44:52.265Z,0.93
2018-04-26T21:47:20.077Z,0.40
2018-04-26T21:49:52.577Z,0.53
2018-04-26T21:52:24.871Z,0.80
2018-04-26T21:54:57.947Z,0.50
2018-04-26T21:57:30.343Z,0.67
2018-04-26T22:00:03.448Z,0.87
2018-04-26T22:02:29.657Z,0.87
2018-04-26T22:04:56.770Z,0.60
2018-04-26T22:07:23.087Z,0.70
2018-04-26T22:09:49.391Z,0.70
2018-04-26T22:12:15.693Z,0.70
2018-04-26T22:14:42.755Z,0.50
2018-04-26T22:17:09.089Z,0.30
2018-04-26T22:19:35.396Z,0.50
2018-04-26T22:22:02.482Z,0.70
2018-04-26T22:24:28.756Z,0.70
2018-04-26T22:26:55.136Z,0.60
2018-04-26T22:29:21.401Z,0.50
2018-04-26T22:31:47.685Z,0.70
2018-04-26T22:34:14.715Z,0.63
2018-04-26T22:36:41.089Z,0.87
2018-04-26T22:39:07.420Z,0.70
2018-04-26T22:41:33.796Z,0.80
2018-04-26T22:44:00.128Z,0.63
2018-04-26T22:46:26.424Z,0.50
2018-04-26T22:48:52.748Z,0.90
2018-04-26T22:51:19.106Z,0.53
2018-04-26T22:53:45.537Z,0.80
2018-04-26T22:56:12.511Z,0.50
2018-04-26T22:58:38.809Z,0.90
2018-04-26T23:01:05.273Z,0.60
2018-04-26T23:03:31.544Z,0.70
2018-04-26T23:05:57.876Z,0.80
2018-04-26T23:08:25.242Z,0.50
2018-04-26T23:10:51.552Z,0.83
2018-04-26T23:13:17.849Z,0.73
2018-04-26T23:15:44.136Z,0.70
2018-04-26T23:18:10.431Z,0.63
2018-04-26T23:20:37.465Z,0.60
2018-04-26T23:23:04.528Z,0.70
2018-04-26T23:25:31.589Z,0.90
2018-04-26T23:27:57.847Z,0.67
2018-04-26T23:30:24.260Z,1.37
2018-04-26T23:32:50.553Z,0.63
2018-04-26T23:35:17.692Z,0.83
2018-04-26T23:37:43.989Z,0.73
2018-04-26T23:40:10.295Z,0.70
2018-04-26T23:42:36.647Z,0.60
2018-04-26T23:45:02.961Z,0.70
2018-04-26T23:47:29.252Z,0.63
2018-04-26T23:49:55.544Z,0.70
2018-04-26T23:52:21.823Z,0.60
2018-04-26T23:54:48.854Z,0.87
2018-04-26T23:57:15.152Z,0.60
2018-04-26T23:59:41.480Z,0.93
